sensor_id;sensor_type;location;lat;lon;timestamp;P1;durP1;ratioP1;P2;durP2;ratioP2
20982;SDS011;10650;51.528;6.748;2023-04-19T00:01:06;19.58;;;17.58;;
20982;SDS011;10650;51.528;6.748;2023-04-19T00:03:33;20.08;;;17.95;;
20982;SDS011;10650;51.528;6.748;2023-04-19T00:06:02;21.92;;;18.48;;
20982;SDS011;10650;51.528;6.748;2023-04-19T00:08:31;19.17;;;16.92;;
20982;SDS011;10650;51.528;6.748;2023-04-19T00:10:59;18.95;;;16.95;;
20982;SDS011;10650;51.528;6.748;2023-04-19T00:13:27;19.77;;;17.70;;
20982;SDS011;10650;51.528;6.748;2023-04-19T00:15:54;19.38;;;17.30;;
20982;SDS011;10650;51.528;6.748;2023-04-19T00:18:22;19.45;;;17.27;;
20982;SDS011;10650;51.528;6.748;2023-04-19T00:20:50;19.38;;;16.70;;
20982;SDS011;10650;51.528;6.748;2023-04-19T00:23:18;20.83;;;17.55;;
20982;SDS011;10650;51.528;6.748;2023-04-19T00:25:47;20.60;;;16.83;;
20982;SDS011;10650;51.528;6.748;2023-04-19T00:28:15;19.52;;;16.90;;
20982;SDS011;10650;51.528;6.748;2023-04-19T00:30:43;19.00;;;16.92;;
20982;SDS011;10650;51.528;6.748;2023-04-19T00:33:11;21.95;;;17.42;;
20982;SDS011;10650;51.528;6.748;2023-04-19T00:35:38;19.23;;;17.02;;
20982;SDS011;10650;51.528;6.748;2023-04-19T00:38:07;23.02;;;17.48;;
20982;SDS011;10650;51.528;6.748;2023-04-19T00:40:35;21.13;;;17.90;;
20982;SDS011;10650;51.528;6.748;2023-04-19T00:43:04;20.60;;;17.13;;
20982;SDS011;10650;51.528;6.748;2023-04-19T00:45:32;19.83;;;17.25;;
20982;SDS011;10650;51.528;6.748;2023-04-19T00:48:01;22.55;;;17.30;;
20982;SDS011;10650;51.528;6.748;2023-04-19T00:50:29;20.00;;;17.67;;
20982;SDS011;10650;51.528;6.748;2023-04-19T00:52:57;19.50;;;17.05;;
20982;SDS011;10650;51.528;6.748;2023-04-19T00:55:25;19.48;;;17.02;;
20982;SDS011;10650;51.528;6.748;2023-04-19T00:57:52;19.65;;;17.40;;
20982;SDS011;10650;51.528;6.748;2023-04-19T01:00:22;19.33;;;17.23;;
20982;SDS011;10650;51.528;6.748;2023-04-19T01:02:50;21.58;;;17.48;;
20982;SDS011;10650;51.528;6.748;2023-04-19T01:05:18;20.08;;;17.35;;
20982;SDS011;10650;51.528;6.748;2023-04-19T01:07:45;18.92;;;16.85;;
20982;SDS011;10650;51.528;6.748;2023-04-19T01:10:13;22.42;;;16.80;;
20982;SDS011;10650;51.528;6.748;2023-04-19T01:12:41;18.67;;;16.63;;
20982;SDS011;10650;51.528;6.748;2023-04-19T01:15:09;21.80;;;17.10;;
20982;SDS011;10650;51.528;6.748;2023-04-19T01:17:38;19.08;;;16.65;;
20982;SDS011;10650;51.528;6.748;2023-04-19T01:20:07;18.42;;;16.05;;
20982;SDS011;10650;51.528;6.748;2023-04-19T01:22:37;20.75;;;16.38;;
20982;SDS011;10650;51.528;6.748;2023-04-19T01:25:05;21.38;;;16.98;;
20982;SDS011;10650;51.528;6.748;2023-04-19T01:27:34;17.55;;;15.75;;
20982;SDS011;10650;51.528;6.748;2023-04-19T01:30:02;19.58;;;16.13;;
20982;SDS011;10650;51.528;6.748;2023-04-19T01:32:31;19.45;;;16.42;;
20982;SDS011;10650;51.528;6.748;2023-04-19T01:34:59;18.63;;;16.23;;
20982;SDS011;10650;51.528;6.748;2023-04-19T01:37:27;20.65;;;17.20;;
20982;SDS011;10650;51.528;6.748;2023-04-19T01:39:56;18.77;;;16.67;;
20982;SDS011;10650;51.528;6.748;2023-04-19T01:42:23;17.73;;;15.80;;
20982;SDS011;10650;51.528;6.748;2023-04-19T01:44:52;19.95;;;15.85;;
20982;SDS011;10650;51.528;6.748;2023-04-19T01:47:20;19.50;;;15.93;;
20982;SDS011;10650;51.528;6.748;2023-04-19T01:49:48;18.77;;;15.32;;
20982;SDS011;10650;51.528;6.748;2023-04-19T01:52:16;16.27;;;14.38;;
20982;SDS011;10650;51.528;6.748;2023-04-19T01:54:43;17.00;;;14.70;;
20982;SDS011;10650;51.528;6.748;2023-04-19T01:57:13;17.83;;;15.02;;
20982;SDS011;10650;51.528;6.748;2023-04-19T01:59:41;16.75;;;15.05;;
20982;SDS011;10650;51.528;6.748;2023-04-19T02:02:09;16.65;;;14.50;;
20982;SDS011;10650;51.528;6.748;2023-04-19T02:04:37;16.77;;;15.05;;
20982;SDS011;10650;51.528;6.748;2023-04-19T02:07:04;18.20;;;14.80;;
20982;SDS011;10650;51.528;6.748;2023-04-19T02:09:33;19.15;;;15.15;;
20982;SDS011;10650;51.528;6.748;2023-04-19T02:12:02;17.50;;;14.95;;
20982;SDS011;10650;51.528;6.748;2023-04-19T02:14:32;18.63;;;14.55;;
20982;SDS011;10650;51.528;6.748;2023-04-19T02:17:00;16.98;;;14.68;;
20982;SDS011;10650;51.528;6.748;2023-04-19T02:19:27;17.17;;;14.80;;
20982;SDS011;10650;51.528;6.748;2023-04-19T02:21:55;16.83;;;14.70;;
20982;SDS011;10650;51.528;6.748;2023-04-19T02:24:23;17.25;;;14.45;;
20982;SDS011;10650;51.528;6.748;2023-04-19T02:26:51;16.40;;;14.23;;
20982;SDS011;10650;51.528;6.748;2023-04-19T02:29:19;17.63;;;13.85;;
20982;SDS011;10650;51.528;6.748;2023-04-19T02:31:48;16.67;;;14.30;;
20982;SDS011;10650;51.528;6.748;2023-04-19T02:34:16;16.52;;;13.40;;
20982;SDS011;10650;51.528;6.748;2023-04-19T02:36:44;17.38;;;13.35;;
20982;SDS011;10650;51.528;6.748;2023-04-19T02:39:11;15.05;;;13.02;;
20982;SDS011;10650;51.528;6.748;2023-04-19T02:41:39;15.95;;;12.95;;
20982;SDS011;10650;51.528;6.748;2023-04-19T02:44:07;15.10;;;13.55;;
20982;SDS011;10650;51.528;6.748;2023-04-19T02:46:35;13.88;;;12.38;;
20982;SDS011;10650;51.528;6.748;2023-04-19T02:49:04;14.00;;;12.05;;
20982;SDS011;10650;51.528;6.748;2023-04-19T02:51:32;13.50;;;11.68;;
20982;SDS011;10650;51.528;6.748;2023-04-19T02:54:00;13.93;;;11.88;;
20982;SDS011;10650;51.528;6.748;2023-04-19T02:56:28;13.30;;;11.85;;
20982;SDS011;10650;51.528;6.748;2023-04-19T02:58:58;13.48;;;11.88;;
20982;SDS011;10650;51.528;6.748;2023-04-19T03:01:27;14.50;;;12.43;;
20982;SDS011;10650;51.528;6.748;2023-04-19T03:03:55;12.82;;;11.30;;
20982;SDS011;10650;51.528;6.748;2023-04-19T03:06:24;13.88;;;11.60;;
20982;SDS011;10650;51.528;6.748;2023-04-19T03:08:52;13.93;;;11.25;;
20982;SDS011;10650;51.528;6.748;2023-04-19T03:11:20;14.55;;;11.10;;
20982;SDS011;10650;51.528;6.748;2023-04-19T03:13:47;13.48;;;11.02;;
20982;SDS011;10650;51.528;6.748;2023-04-19T03:16:15;14.05;;;11.10;;
20982;SDS011;10650;51.528;6.748;2023-04-19T03:18:43;12.55;;;10.82;;
20982;SDS011;10650;51.528;6.748;2023-04-19T03:21:14;11.75;;;10.55;;
20982;SDS011;10650;51.528;6.748;2023-04-19T03:23:43;11.95;;;10.45;;
20982;SDS011;10650;51.528;6.748;2023-04-19T03:26:11;11.88;;;10.60;;
20982;SDS011;10650;51.528;6.748;2023-04-19T03:28:39;13.80;;;10.48;;
20982;SDS011;10650;51.528;6.748;2023-04-19T03:31:07;13.38;;;10.32;;
20982;SDS011;10650;51.528;6.748;2023-04-19T03:33:34;10.43;;;9.25;;
20982;SDS011;10650;51.528;6.748;2023-04-19T03:36:02;11.75;;;9.50;;
20982;SDS011;10650;51.528;6.748;2023-04-19T03:38:31;10.43;;;9.10;;
20982;SDS011;10650;51.528;6.748;2023-04-19T03:41:00;10.63;;;9.48;;
20982;SDS011;10650;51.528;6.748;2023-04-19T03:43:28;10.15;;;9.02;;
20982;SDS011;10650;51.528;6.748;2023-04-19T03:45:55;11.05;;;8.77;;
20982;SDS011;10650;51.528;6.748;2023-04-19T03:48:23;10.50;;;9.20;;
20982;SDS011;10650;51.528;6.748;2023-04-19T03:50:51;9.95;;;8.63;;
20982;SDS011;10650;51.528;6.748;2023-04-19T03:53:19;8.98;;;8.07;;
20982;SDS011;10650;51.528;6.748;2023-04-19T03:55:47;9.65;;;8.35;;
20982;SDS011;10650;51.528;6.748;2023-04-19T03:58:16;9.65;;;8.35;;
20982;SDS011;10650;51.528;6.748;2023-04-19T04:00:44;9.98;;;8.38;;
20982;SDS011;10650;51.528;6.748;2023-04-19T04:03:12;9.55;;;8.38;;
20982;SDS011;10650;51.528;6.748;2023-04-19T04:05:40;9.38;;;8.05;;
20982;SDS011;10650;51.528;6.748;2023-04-19T04:08:08;9.63;;;8.43;;
20982;SDS011;10650;51.528;6.748;2023-04-19T04:10:36;10.52;;;8.52;;
20982;SDS011;10650;51.528;6.748;2023-04-19T04:13:03;10.10;;;8.25;;
20982;SDS011;10650;51.528;6.748;2023-04-19T04:15:32;8.98;;;7.68;;
20982;SDS011;10650;51.528;6.748;2023-04-19T04:18:00;8.88;;;7.97;;
20982;SDS011;10650;51.528;6.748;2023-04-19T04:20:28;11.43;;;8.43;;
20982;SDS011;10650;51.528;6.748;2023-04-19T04:22:56;9.15;;;8.10;;
20982;SDS011;10650;51.528;6.748;2023-04-19T04:25:24;10.52;;;7.82;;
20982;SDS011;10650;51.528;6.748;2023-04-19T04:27:54;14.00;;;8.60;;
20982;SDS011;10650;51.528;6.748;2023-04-19T04:30:22;8.60;;;7.70;;
20982;SDS011;10650;51.528;6.748;2023-04-19T04:32:54;10.93;;;7.75;;
20982;SDS011;10650;51.528;6.748;2023-04-19T04:35:23;9.57;;;7.75;;
20982;SDS011;10650;51.528;6.748;2023-04-19T04:37:51;8.85;;;7.95;;
20982;SDS011;10650;51.528;6.748;2023-04-19T04:40:20;8.57;;;7.68;;
20982;SDS011;10650;51.528;6.748;2023-04-19T04:42:48;10.63;;;8.15;;
20982;SDS011;10650;51.528;6.748;2023-04-19T04:45:18;8.13;;;7.32;;
20982;SDS011;10650;51.528;6.748;2023-04-19T04:47:46;9.60;;;7.80;;
20982;SDS011;10650;51.528;6.748;2023-04-19T04:50:15;8.68;;;7.78;;
20982;SDS011;10650;51.528;6.748;2023-04-19T04:52:43;10.65;;;7.57;;
20982;SDS011;10650;51.528;6.748;2023-04-19T04:55:11;9.30;;;7.53;;
20982;SDS011;10650;51.528;6.748;2023-04-19T04:57:39;9.80;;;7.45;;
20982;SDS011;10650;51.528;6.748;2023-04-19T05:00:07;10.00;;;8.32;;
20982;SDS011;10650;51.528;6.748;2023-04-19T05:02:37;9.48;;;7.90;;
20982;SDS011;10650;51.528;6.748;2023-04-19T05:05:06;10.23;;;7.70;;
20982;SDS011;10650;51.528;6.748;2023-04-19T05:07:37;10.45;;;7.90;;
20982;SDS011;10650;51.528;6.748;2023-04-19T05:10:06;8.95;;;8.05;;
20982;SDS011;10650;51.528;6.748;2023-04-19T05:12:35;9.77;;;7.65;;
20982;SDS011;10650;51.528;6.748;2023-04-19T05:15:04;8.75;;;7.85;;
20982;SDS011;10650;51.528;6.748;2023-04-19T05:17:32;8.65;;;7.72;;
20982;SDS011;10650;51.528;6.748;2023-04-19T05:20:00;8.15;;;7.35;;
20982;SDS011;10650;51.528;6.748;2023-04-19T05:22:29;8.98;;;7.30;;
20982;SDS011;10650;51.528;6.748;2023-04-19T05:24:58;10.82;;;7.90;;
20982;SDS011;10650;51.528;6.748;2023-04-19T05:27:27;11.05;;;7.90;;
20982;SDS011;10650;51.528;6.748;2023-04-19T05:29:55;8.68;;;7.10;;
20982;SDS011;10650;51.528;6.748;2023-04-19T05:32:22;9.35;;;7.70;;
20982;SDS011;10650;51.528;6.748;2023-04-19T05:34:50;9.30;;;7.90;;
20982;SDS011;10650;51.528;6.748;2023-04-19T05:37:18;9.45;;;7.40;;
20982;SDS011;10650;51.528;6.748;2023-04-19T05:39:46;12.93;;;10.15;;
20982;SDS011;10650;51.528;6.748;2023-04-19T05:42:15;11.52;;;8.75;;
20982;SDS011;10650;51.528;6.748;2023-04-19T05:44:43;8.40;;;7.50;;
20982;SDS011;10650;51.528;6.748;2023-04-19T05:47:10;9.63;;;7.47;;
20982;SDS011;10650;51.528;6.748;2023-04-19T05:49:38;9.32;;;7.82;;
20982;SDS011;10650;51.528;6.748;2023-04-19T05:52:08;8.93;;;6.38;;
20982;SDS011;10650;51.528;6.748;2023-04-19T05:54:36;9.30;;;7.07;;
20982;SDS011;10650;51.528;6.748;2023-04-19T05:57:04;8.73;;;7.07;;
20982;SDS011;10650;51.528;6.748;2023-04-19T05:59:34;8.85;;;7.10;;
20982;SDS011;10650;51.528;6.748;2023-04-19T06:02:01;7.95;;;6.63;;
20982;SDS011;10650;51.528;6.748;2023-04-19T06:04:33;11.55;;;7.20;;
20982;SDS011;10650;51.528;6.748;2023-04-19T06:07:01;9.02;;;6.55;;
20982;SDS011;10650;51.528;6.748;2023-04-19T06:09:33;9.30;;;6.53;;
20982;SDS011;10650;51.528;6.748;2023-04-19T06:12:01;8.15;;;6.70;;
20982;SDS011;10650;51.528;6.748;2023-04-19T06:14:29;8.45;;;6.43;;
20982;SDS011;10650;51.528;6.748;2023-04-19T06:16:58;7.65;;;6.18;;
20982;SDS011;10650;51.528;6.748;2023-04-19T06:19:26;9.98;;;6.90;;
20982;SDS011;10650;51.528;6.748;2023-04-19T06:21:53;6.65;;;5.95;;
20982;SDS011;10650;51.528;6.748;2023-04-19T06:24:21;7.57;;;5.82;;
20982;SDS011;10650;51.528;6.748;2023-04-19T06:26:49;8.77;;;6.10;;
20982;SDS011;10650;51.528;6.748;2023-04-19T06:29:17;7.55;;;6.22;;
20982;SDS011;10650;51.528;6.748;2023-04-19T06:31:46;6.90;;;6.20;;
20982;SDS011;10650;51.528;6.748;2023-04-19T06:34:16;8.63;;;5.88;;
20982;SDS011;10650;51.528;6.748;2023-04-19T06:36:44;8.68;;;6.50;;
20982;SDS011;10650;51.528;6.748;2023-04-19T06:39:13;7.15;;;6.13;;
20982;SDS011;10650;51.528;6.748;2023-04-19T06:41:42;8.57;;;6.43;;
20982;SDS011;10650;51.528;6.748;2023-04-19T06:44:10;7.00;;;5.70;;
20982;SDS011;10650;51.528;6.748;2023-04-19T06:46:38;7.80;;;6.18;;
20982;SDS011;10650;51.528;6.748;2023-04-19T06:49:06;8.57;;;5.97;;
20982;SDS011;10650;51.528;6.748;2023-04-19T06:51:36;7.28;;;6.28;;
20982;SDS011;10650;51.528;6.748;2023-04-19T06:54:05;8.63;;;6.18;;
20982;SDS011;10650;51.528;6.748;2023-04-19T06:56:39;8.20;;;6.20;;
20982;SDS011;10650;51.528;6.748;2023-04-19T06:59:11;9.70;;;5.88;;
20982;SDS011;10650;51.528;6.748;2023-04-19T07:01:39;7.72;;;5.63;;
20982;SDS011;10650;51.528;6.748;2023-04-19T07:04:07;9.95;;;6.00;;
20982;SDS011;10650;51.528;6.748;2023-04-19T07:06:37;9.88;;;6.90;;
20982;SDS011;10650;51.528;6.748;2023-04-19T07:09:06;7.10;;;5.57;;
20982;SDS011;10650;51.528;6.748;2023-04-19T07:11:34;6.35;;;5.40;;
20982;SDS011;10650;51.528;6.748;2023-04-19T07:14:02;6.45;;;5.35;;
20982;SDS011;10650;51.528;6.748;2023-04-19T07:16:30;9.57;;;5.70;;
20982;SDS011;10650;51.528;6.748;2023-04-19T07:18:59;8.20;;;5.38;;
20982;SDS011;10650;51.528;6.748;2023-04-19T07:21:27;5.68;;;5.07;;
20982;SDS011;10650;51.528;6.748;2023-04-19T07:23:59;6.22;;;5.60;;
20982;SDS011;10650;51.528;6.748;2023-04-19T07:26:27;10.48;;;6.25;;
20982;SDS011;10650;51.528;6.748;2023-04-19T07:29:02;7.50;;;5.30;;
20982;SDS011;10650;51.528;6.748;2023-04-19T07:31:30;9.60;;;5.88;;
20982;SDS011;10650;51.528;6.748;2023-04-19T07:33:58;7.85;;;5.40;;
20982;SDS011;10650;51.528;6.748;2023-04-19T07:36:26;8.60;;;5.88;;
20982;SDS011;10650;51.528;6.748;2023-04-19T07:38:53;7.80;;;5.47;;
20982;SDS011;10650;51.528;6.748;2023-04-19T07:41:23;9.30;;;5.72;;
20982;SDS011;10650;51.528;6.748;2023-04-19T07:43:51;5.25;;;4.72;;
20982;SDS011;10650;51.528;6.748;2023-04-19T07:46:18;7.22;;;5.10;;
20982;SDS011;10650;51.528;6.748;2023-04-19T07:48:46;6.68;;;4.93;;
20982;SDS011;10650;51.528;6.748;2023-04-19T07:51:15;6.50;;;5.30;;
20982;SDS011;10650;51.528;6.748;2023-04-19T07:53:45;6.75;;;5.00;;
20982;SDS011;10650;51.528;6.748;2023-04-19T07:56:13;5.65;;;4.85;;
20982;SDS011;10650;51.528;6.748;2023-04-19T07:58:43;6.78;;;4.53;;
20982;SDS011;10650;51.528;6.748;2023-04-19T08:01:22;7.80;;;4.68;;
20982;SDS011;10650;51.528;6.748;2023-04-19T08:03:49;6.30;;;4.68;;
20982;SDS011;10650;51.528;6.748;2023-04-19T08:06:18;5.05;;;4.47;;
20982;SDS011;10650;51.528;6.748;2023-04-19T08:08:46;6.93;;;4.55;;
20982;SDS011;10650;51.528;6.748;2023-04-19T08:11:15;6.30;;;4.20;;
20982;SDS011;10650;51.528;6.748;2023-04-19T08:13:44;6.05;;;4.20;;
20982;SDS011;10650;51.528;6.748;2023-04-19T08:16:32;7.60;;;4.70;;
20982;SDS011;10650;51.528;6.748;2023-04-19T08:19:20;5.38;;;4.10;;
20982;SDS011;10650;51.528;6.748;2023-04-19T08:21:48;7.82;;;4.28;;
20982;SDS011;10650;51.528;6.748;2023-04-19T08:24:16;4.30;;;3.83;;
20982;SDS011;10650;51.528;6.748;2023-04-19T08:26:44;4.47;;;3.55;;
20982;SDS011;10650;51.528;6.748;2023-04-19T08:29:20;7.07;;;3.95;;
20982;SDS011;10650;51.528;6.748;2023-04-19T08:31:48;5.68;;;3.67;;
20982;SDS011;10650;51.528;6.748;2023-04-19T08:34:16;5.50;;;3.60;;
20982;SDS011;10650;51.528;6.748;2023-04-19T08:36:44;4.78;;;3.90;;
20982;SDS011;10650;51.528;6.748;2023-04-19T08:39:28;5.22;;;3.75;;
20982;SDS011;10650;51.528;6.748;2023-04-19T08:42:00;4.28;;;3.67;;
20982;SDS011;10650;51.528;6.748;2023-04-19T08:44:44;6.78;;;3.60;;
20982;SDS011;10650;51.528;6.748;2023-04-19T08:47:15;5.32;;;3.63;;
20982;SDS011;10650;51.528;6.748;2023-04-19T08:49:57;4.63;;;3.47;;
20982;SDS011;10650;51.528;6.748;2023-04-19T08:52:30;5.82;;;4.00;;
20982;SDS011;10650;51.528;6.748;2023-04-19T08:55:07;5.43;;;3.90;;
20982;SDS011;10650;51.528;6.748;2023-04-19T08:57:35;7.15;;;3.53;;
20982;SDS011;10650;51.528;6.748;2023-04-19T09:00:06;6.72;;;4.05;;
20982;SDS011;10650;51.528;6.748;2023-04-19T09:02:43;7.75;;;3.75;;
20982;SDS011;10650;51.528;6.748;2023-04-19T09:05:14;8.07;;;3.95;;
20982;SDS011;10650;51.528;6.748;2023-04-19T09:07:43;6.45;;;3.72;;
20982;SDS011;10650;51.528;6.748;2023-04-19T09:10:14;4.53;;;3.42;;
20982;SDS011;10650;51.528;6.748;2023-04-19T09:12:57;5.13;;;3.28;;
20982;SDS011;10650;51.528;6.748;2023-04-19T09:15:35;4.07;;;3.35;;
20982;SDS011;10650;51.528;6.748;2023-04-19T09:18:05;6.07;;;3.33;;
20982;SDS011;10650;51.528;6.748;2023-04-19T09:20:35;4.75;;;3.20;;
20982;SDS011;10650;51.528;6.748;2023-04-19T09:23:04;4.20;;;3.00;;
20982;SDS011;10650;51.528;6.748;2023-04-19T09:25:34;5.63;;;3.03;;
20982;SDS011;10650;51.528;6.748;2023-04-19T09:28:21;5.38;;;3.13;;
20982;SDS011;10650;51.528;6.748;2023-04-19T09:30:52;4.32;;;2.50;;
20982;SDS011;10650;51.528;6.748;2023-04-19T09:33:36;3.65;;;2.60;;
20982;SDS011;10650;51.528;6.748;2023-04-19T09:36:05;4.28;;;3.13;;
20982;SDS011;10650;51.528;6.748;2023-04-19T09:38:45;3.10;;;2.80;;
20982;SDS011;10650;51.528;6.748;2023-04-19T09:41:14;3.05;;;2.65;;
20982;SDS011;10650;51.528;6.748;2023-04-19T09:43:42;4.32;;;2.60;;
20982;SDS011;10650;51.528;6.748;2023-04-19T09:46:32;2.63;;;2.42;;
20982;SDS011;10650;51.528;6.748;2023-04-19T09:49:20;6.00;;;3.10;;
20982;SDS011;10650;51.528;6.748;2023-04-19T09:52:06;3.67;;;3.00;;
20982;SDS011;10650;51.528;6.748;2023-04-19T09:54:36;4.85;;;2.80;;
20982;SDS011;10650;51.528;6.748;2023-04-19T09:57:05;3.92;;;2.40;;
20982;SDS011;10650;51.528;6.748;2023-04-19T09:59:34;3.97;;;2.75;;
20982;SDS011;10650;51.528;6.748;2023-04-19T10:02:03;3.22;;;2.80;;
20982;SDS011;10650;51.528;6.748;2023-04-19T10:04:33;3.28;;;2.70;;
20982;SDS011;10650;51.528;6.748;2023-04-19T10:07:22;3.25;;;2.90;;
20982;SDS011;10650;51.528;6.748;2023-04-19T10:09:56;4.50;;;2.50;;
20982;SDS011;10650;51.528;6.748;2023-04-19T10:12:29;3.20;;;2.50;;
20982;SDS011;10650;51.528;6.748;2023-04-19T10:17:31;8.48;;;3.53;;
20982;SDS011;10650;51.528;6.748;2023-04-19T10:20:00;3.58;;;2.80;;
20982;SDS011;10650;51.528;6.748;2023-04-19T10:22:33;4.72;;;3.00;;
20982;SDS011;10650;51.528;6.748;2023-04-19T10:25:06;3.25;;;2.92;;
20982;SDS011;10650;51.528;6.748;2023-04-19T10:27:36;6.97;;;3.42;;
20982;SDS011;10650;51.528;6.748;2023-04-19T10:30:04;4.25;;;3.17;;
20982;SDS011;10650;51.528;6.748;2023-04-19T10:32:40;6.88;;;3.17;;
20982;SDS011;10650;51.528;6.748;2023-04-19T10:35:09;5.60;;;3.38;;
20982;SDS011;10650;51.528;6.748;2023-04-19T10:38:00;4.10;;;2.85;;
20982;SDS011;10650;51.528;6.748;2023-04-19T10:43:24;6.18;;;3.10;;
20982;SDS011;10650;51.528;6.748;2023-04-19T10:45:53;3.65;;;2.97;;
20982;SDS011;10650;51.528;6.748;2023-04-19T10:48:33;4.53;;;2.90;;
20982;SDS011;10650;51.528;6.748;2023-04-19T10:51:04;3.72;;;3.25;;
20982;SDS011;10650;51.528;6.748;2023-04-19T10:53:54;5.80;;;3.45;;
20982;SDS011;10650;51.528;6.748;2023-04-19T10:59:37;5.30;;;2.85;;
20982;SDS011;10650;51.528;6.748;2023-04-19T11:04:59;4.03;;;2.70;;
20982;SDS011;10650;51.528;6.748;2023-04-19T11:07:39;5.13;;;3.30;;
20982;SDS011;10650;51.528;6.748;2023-04-19T11:10:12;4.93;;;3.63;;
20982;SDS011;10650;51.528;6.748;2023-04-19T11:12:43;3.65;;;3.30;;
20982;SDS011;10650;51.528;6.748;2023-04-19T11:15:11;5.63;;;3.13;;
20982;SDS011;10650;51.528;6.748;2023-04-19T11:17:39;5.10;;;3.28;;
20982;SDS011;10650;51.528;6.748;2023-04-19T11:20:09;19.88;;;17.73;;
20982;SDS011;10650;51.528;6.748;2023-04-19T11:22:40;9.95;;;7.63;;
20982;SDS011;10650;51.528;6.748;2023-04-19T11:25:09;3.47;;;3.13;;
20982;SDS011;10650;51.528;6.748;2023-04-19T11:27:38;6.28;;;5.63;;
20982;SDS011;10650;51.528;6.748;2023-04-19T11:30:07;5.05;;;2.80;;
20982;SDS011;10650;51.528;6.748;2023-04-19T11:32:37;3.67;;;2.97;;
20982;SDS011;10650;51.528;6.748;2023-04-19T11:35:12;4.20;;;3.00;;
20982;SDS011;10650;51.528;6.748;2023-04-19T11:37:41;4.97;;;3.72;;
20982;SDS011;10650;51.528;6.748;2023-04-19T11:40:12;4.15;;;3.60;;
20982;SDS011;10650;51.528;6.748;2023-04-19T11:42:41;6.95;;;3.38;;
20982;SDS011;10650;51.528;6.748;2023-04-19T11:45:09;5.80;;;4.07;;
20982;SDS011;10650;51.528;6.748;2023-04-19T11:47:53;5.53;;;3.38;;
20982;SDS011;10650;51.528;6.748;2023-04-19T11:50:30;4.47;;;3.30;;
20982;SDS011;10650;51.528;6.748;2023-04-19T11:52:59;3.88;;;3.47;;
20982;SDS011;10650;51.528;6.748;2023-04-19T11:55:35;7.82;;;3.63;;
20982;SDS011;10650;51.528;6.748;2023-04-19T11:58:05;5.60;;;3.60;;
20982;SDS011;10650;51.528;6.748;2023-04-19T12:00:35;7.45;;;3.50;;
20982;SDS011;10650;51.528;6.748;2023-04-19T12:03:03;4.53;;;3.35;;
20982;SDS011;10650;51.528;6.748;2023-04-19T12:05:33;5.07;;;3.28;;
20982;SDS011;10650;51.528;6.748;2023-04-19T12:08:01;3.58;;;3.28;;
20982;SDS011;10650;51.528;6.748;2023-04-19T12:10:31;5.35;;;3.53;;
20982;SDS011;10650;51.528;6.748;2023-04-19T12:12:59;4.95;;;4.22;;
20982;SDS011;10650;51.528;6.748;2023-04-19T12:15:39;7.10;;;4.60;;
20982;SDS011;10650;51.528;6.748;2023-04-19T12:18:08;4.90;;;4.15;;
20982;SDS011;10650;51.528;6.748;2023-04-19T12:20:42;4.50;;;3.75;;
20982;SDS011;10650;51.528;6.748;2023-04-19T12:23:11;4.63;;;3.63;;
20982;SDS011;10650;51.528;6.748;2023-04-19T12:25:41;7.03;;;3.50;;
20982;SDS011;10650;51.528;6.748;2023-04-19T12:28:09;4.18;;;3.28;;
20982;SDS011;10650;51.528;6.748;2023-04-19T12:30:37;7.50;;;4.10;;
20982;SDS011;10650;51.528;6.748;2023-04-19T12:33:06;4.32;;;3.60;;
20982;SDS011;10650;51.528;6.748;2023-04-19T12:35:34;5.88;;;3.80;;
20982;SDS011;10650;51.528;6.748;2023-04-19T12:38:05;7.32;;;3.85;;
20982;SDS011;10650;51.528;6.748;2023-04-19T12:40:34;7.40;;;3.95;;
20982;SDS011;10650;51.528;6.748;2023-04-19T12:43:02;6.28;;;4.03;;
20982;SDS011;10650;51.528;6.748;2023-04-19T12:45:29;5.35;;;3.35;;
20982;SDS011;10650;51.528;6.748;2023-04-19T12:48:00;5.20;;;3.17;;
20982;SDS011;10650;51.528;6.748;2023-04-19T12:50:28;4.22;;;3.00;;
20982;SDS011;10650;51.528;6.748;2023-04-19T12:52:55;4.88;;;3.35;;
20982;SDS011;10650;51.528;6.748;2023-04-19T12:55:25;5.22;;;3.33;;
20982;SDS011;10650;51.528;6.748;2023-04-19T12:57:52;4.57;;;3.85;;
20982;SDS011;10650;51.528;6.748;2023-04-19T13:00:21;4.95;;;3.92;;
20982;SDS011;10650;51.528;6.748;2023-04-19T13:02:49;3.88;;;3.30;;
20982;SDS011;10650;51.528;6.748;2023-04-19T13:05:17;4.88;;;3.80;;
20982;SDS011;10650;51.528;6.748;2023-04-19T13:07:46;6.30;;;4.20;;
20982;SDS011;10650;51.528;6.748;2023-04-19T13:10:13;4.22;;;3.30;;
20982;SDS011;10650;51.528;6.748;2023-04-19T13:12:42;7.20;;;4.80;;
20982;SDS011;10650;51.528;6.748;2023-04-19T13:15:11;4.63;;;4.13;;
20982;SDS011;10650;51.528;6.748;2023-04-19T13:17:38;4.85;;;4.35;;
20982;SDS011;10650;51.528;6.748;2023-04-19T13:20:07;6.18;;;4.45;;
20982;SDS011;10650;51.528;6.748;2023-04-19T13:22:35;6.20;;;4.15;;
20982;SDS011;10650;51.528;6.748;2023-04-19T13:25:03;5.35;;;4.40;;
20982;SDS011;10650;51.528;6.748;2023-04-19T13:27:31;5.15;;;4.15;;
20982;SDS011;10650;51.528;6.748;2023-04-19T13:30:01;6.13;;;4.50;;
20982;SDS011;10650;51.528;6.748;2023-04-19T13:32:28;5.00;;;4.40;;
20982;SDS011;10650;51.528;6.748;2023-04-19T13:34:56;6.18;;;4.20;;
20982;SDS011;10650;51.528;6.748;2023-04-19T13:37:24;4.68;;;4.18;;
20982;SDS011;10650;51.528;6.748;2023-04-19T13:39:52;6.63;;;4.18;;
20982;SDS011;10650;51.528;6.748;2023-04-19T13:42:36;8.13;;;5.68;;
20982;SDS011;10650;51.528;6.748;2023-04-19T13:45:06;4.82;;;4.20;;
20982;SDS011;10650;51.528;6.748;2023-04-19T13:47:34;9.07;;;4.47;;
20982;SDS011;10650;51.528;6.748;2023-04-19T13:50:02;4.38;;;3.92;;
20982;SDS011;10650;51.528;6.748;2023-04-19T13:52:30;5.53;;;3.70;;
20982;SDS011;10650;51.528;6.748;2023-04-19T13:54:58;6.72;;;3.70;;
20982;SDS011;10650;51.528;6.748;2023-04-19T13:57:26;6.22;;;3.95;;
20982;SDS011;10650;51.528;6.748;2023-04-19T13:59:54;4.88;;;3.65;;
20982;SDS011;10650;51.528;6.748;2023-04-19T14:02:23;5.55;;;3.78;;
20982;SDS011;10650;51.528;6.748;2023-04-19T14:04:52;5.28;;;3.38;;
20982;SDS011;10650;51.528;6.748;2023-04-19T14:07:25;3.97;;;3.53;;
20982;SDS011;10650;51.528;6.748;2023-04-19T14:09:56;6.10;;;3.67;;
20982;SDS011;10650;51.528;6.748;2023-04-19T14:12:24;5.75;;;3.50;;
20982;SDS011;10650;51.528;6.748;2023-04-19T14:14:53;5.90;;;3.50;;
20982;SDS011;10650;51.528;6.748;2023-04-19T14:17:20;5.35;;;3.70;;
20982;SDS011;10650;51.528;6.748;2023-04-19T14:19:50;3.90;;;3.50;;
20982;SDS011;10650;51.528;6.748;2023-04-19T14:22:20;4.15;;;3.75;;
20982;SDS011;10650;51.528;6.748;2023-04-19T14:24:48;5.78;;;3.90;;
20982;SDS011;10650;51.528;6.748;2023-04-19T14:27:16;4.65;;;3.92;;
20982;SDS011;10650;51.528;6.748;2023-04-19T14:29:44;5.40;;;3.83;;
20982;SDS011;10650;51.528;6.748;2023-04-19T14:32:12;5.18;;;3.65;;
20982;SDS011;10650;51.528;6.748;2023-04-19T14:34:43;3.70;;;3.35;;
20982;SDS011;10650;51.528;6.748;2023-04-19T14:37:12;6.95;;;4.15;;
20982;SDS011;10650;51.528;6.748;2023-04-19T14:39:40;5.60;;;4.15;;
20982;SDS011;10650;51.528;6.748;2023-04-19T14:42:08;5.22;;;3.65;;
20982;SDS011;10650;51.528;6.748;2023-04-19T14:44:35;6.05;;;3.60;;
20982;SDS011;10650;51.528;6.748;2023-04-19T14:47:03;5.28;;;3.78;;
20982;SDS011;10650;51.528;6.748;2023-04-19T14:49:31;4.20;;;3.75;;
20982;SDS011;10650;51.528;6.748;2023-04-19T14:51:59;4.50;;;3.65;;
20982;SDS011;10650;51.528;6.748;2023-04-19T14:54:30;6.20;;;3.75;;
20982;SDS011;10650;51.528;6.748;2023-04-19T14:56:57;7.55;;;3.70;;
20982;SDS011;10650;51.528;6.748;2023-04-19T14:59:26;6.03;;;3.90;;
20982;SDS011;10650;51.528;6.748;2023-04-19T15:01:55;5.47;;;3.58;;
20982;SDS011;10650;51.528;6.748;2023-04-19T15:04:23;4.65;;;3.80;;
20982;SDS011;10650;51.528;6.748;2023-04-19T15:06:51;6.90;;;3.63;;